sensor_id;sensor_type;location;lat;lon;timestamp;pressure;altitude;pressure_sealevel;temperature;humidity
42887;BME280;29032;56.028;92.904;2024-01-07T00:01:48;99709.59;;;-6.06;43.47
42887;BME280;29032;56.028;92.904;2024-01-07T00:06:52;99747.16;;;-6.01;43.82
42887;BME280;29032;56.028;92.904;2024-01-07T00:11:54;99744.78;;;-5.99;43.84
42887;BME280;29032;56.028;92.904;2024-01-07T00:16:56;99756.31;;;-5.95;43.68
42887;BME280;29032;56.028;92.904;2024-01-07T00:22:00;99750.63;;;-6.01;43.96
42887;BME280;29032;56.028;92.904;2024-01-07T00:27:02;99779.19;;;-6.05;44.29
42887;BME280;29032;56.028;92.904;2024-01-07T00:32:05;99779.41;;;-6.12;44.13
42887;BME280;29032;56.028;92.904;2024-01-07T00:37:09;99784.94;;;-6.16;44.47
42887;BME280;29032;56.028;92.904;2024-01-07T00:42:13;99795.75;;;-6.12;44.26
42887;BME280;29032;56.028;92.904;2024-01-07T00:47:15;99797.69;;;-6.13;44.31
42887;BME280;29032;56.028;92.904;2024-01-07T00:52:18;99813.72;;;-6.02;44.46
42887;BME280;29032;56.028;92.904;2024-01-07T00:57:21;99812.88;;;-5.99;44.25
42887;BME280;29032;56.028;92.904;2024-01-07T01:02:23;99816.25;;;-5.95;44.21
42887;BME280;29032;56.028;92.904;2024-01-07T01:07:27;99825.44;;;-5.89;44.02
42887;BME280;29032;56.028;92.904;2024-01-07T01:12:29;99831.41;;;-5.94;44.22
42887;BME280;29032;56.028;92.904;2024-01-07T01:17:31;99841.72;;;-6.02;44.39
42887;BME280;29032;56.028;92.904;2024-01-07T01:22:35;99838.91;;;-5.98;44.26
42887;BME280;29032;56.028;92.904;2024-01-07T01:27:37;99851.00;;;-5.99;44.06
42887;BME280;29032;56.028;92.904;2024-01-07T01:32:40;99857.31;;;-6.02;44.60
42887;BME280;29032;56.028;92.904;2024-01-07T01:37:43;99856.59;;;-5.90;44.18
42887;BME280;29032;56.028;92.904;2024-01-07T01:42:46;99868.06;;;-5.82;43.91
42887;BME280;29032;56.028;92.904;2024-01-07T01:47:48;99881.25;;;-5.81;43.89
42887;BME280;29032;56.028;92.904;2024-01-07T01:52:52;99884.63;;;-5.77;44.39
42887;BME280;29032;56.028;92.904;2024-01-07T01:57:56;99898.50;;;-5.71;43.67
42887;BME280;29032;56.028;92.904;2024-01-07T02:02:58;99911.91;;;-5.77;43.36
42887;BME280;29032;56.028;92.904;2024-01-07T02:08:02;99913.94;;;-5.81;43.55
42887;BME280;29032;56.028;92.904;2024-01-07T02:13:06;99922.75;;;-5.89;43.02
42887;BME280;29032;56.028;92.904;2024-01-07T02:18:08;99935.47;;;-5.99;42.50
42887;BME280;29032;56.028;92.904;2024-01-07T02:23:12;99934.28;;;-6.14;42.66
42887;BME280;29032;56.028;92.904;2024-01-07T02:28:15;99945.19;;;-6.31;42.56
42887;BME280;29032;56.028;92.904;2024-01-07T02:33:18;99950.06;;;-6.38;42.77
42887;BME280;29032;56.028;92.904;2024-01-07T02:38:20;99960.84;;;-6.51;42.53
42887;BME280;29032;56.028;92.904;2024-01-07T02:43:23;99963.66;;;-6.71;42.47
42887;BME280;29032;56.028;92.904;2024-01-07T02:48:26;99974.63;;;-6.74;42.17
42887;BME280;29032;56.028;92.904;2024-01-07T02:53:28;99976.09;;;-6.70;42.28
42887;BME280;29032;56.028;92.904;2024-01-07T02:58:31;99993.06;;;-6.82;41.55
42887;BME280;29032;56.028;92.904;2024-01-07T03:03:34;100008.03;;;-6.90;41.90
42887;BME280;29032;56.028;92.904;2024-01-07T03:08:36;100011.66;;;-6.97;41.33
42887;BME280;29032;56.028;92.904;2024-01-07T03:13:40;100016.78;;;-7.19;41.65
42887;BME280;29032;56.028;92.904;2024-01-07T03:18:42;100023.13;;;-7.25;41.39
42887;BME280;29032;56.028;92.904;2024-01-07T03:23:44;100034.75;;;-7.25;41.47
42887;BME280;29032;56.028;92.904;2024-01-07T03:28:48;100044.72;;;-7.18;41.23
42887;BME280;29032;56.028;92.904;2024-01-07T03:33:50;100052.50;;;-7.20;40.99
42887;BME280;29032;56.028;92.904;2024-01-07T03:38:52;100048.78;;;-7.26;41.04
42887;BME280;29032;56.028;92.904;2024-01-07T03:43:56;100066.81;;;-7.36;40.59
42887;BME280;29032;56.028;92.904;2024-01-07T03:48:58;100068.41;;;-7.39;40.92
42887;BME280;29032;56.028;92.904;2024-01-07T03:54:00;100076.34;;;-7.28;40.80
42887;BME280;29032;56.028;92.904;2024-01-07T03:59:04;100088.16;;;-7.15;40.69
42887;BME280;29032;56.028;92.904;2024-01-07T04:04:06;100093.94;;;-7.13;40.12
42887;BME280;29032;56.028;92.904;2024-01-07T04:09:08;100100.97;;;-7.15;40.12
42887;BME280;29032;56.028;92.904;2024-01-07T04:14:14;100108.84;;;-7.01;40.80
42887;BME280;29032;56.028;92.904;2024-01-07T04:19:16;100110.25;;;-6.93;40.04
42887;BME280;29032;56.028;92.904;2024-01-07T04:24:18;100118.91;;;-6.98;39.90
42887;BME280;29032;56.028;92.904;2024-01-07T04:29:22;100117.38;;;-6.99;39.82
42887;BME280;29032;56.028;92.904;2024-01-07T04:34:24;100122.81;;;-7.19;39.91
42887;BME280;29032;56.028;92.904;2024-01-07T04:39:26;100139.72;;;-7.31;40.39
42887;BME280;29032;56.028;92.904;2024-01-07T04:44:30;100143.41;;;-7.21;40.36
42887;BME280;29032;56.028;92.904;2024-01-07T04:49:32;100158.22;;;-7.22;40.20
42887;BME280;29032;56.028;92.904;2024-01-07T04:54:34;100170.22;;;-7.20;39.97
42887;BME280;29032;56.028;92.904;2024-01-07T04:59:40;100176.56;;;-7.26;40.24
42887;BME280;29032;56.028;92.904;2024-01-07T05:04:42;100176.06;;;-7.21;39.98
42887;BME280;29032;56.028;92.904;2024-01-07T05:09:44;100176.75;;;-7.17;39.82
42887;BME280;29032;56.028;92.904;2024-01-07T05:14:48;100174.38;;;-7.15;39.81
42887;BME280;29032;56.028;92.904;2024-01-07T05:19:50;100187.28;;;-7.19;39.60
42887;BME280;29032;56.028;92.904;2024-01-07T05:24:52;100189.94;;;-7.16;39.71
42887;BME280;29032;56.028;92.904;2024-01-07T05:29:56;100186.53;;;-7.20;39.54
42887;BME280;29032;56.028;92.904;2024-01-07T05:34:58;100199.81;;;-7.25;39.83
42887;BME280;29032;56.028;92.904;2024-01-07T05:40:00;100195.47;;;-7.19;39.81
42887;BME280;29032;56.028;92.904;2024-01-07T05:45:04;100204.53;;;-7.06;39.95
42887;BME280;29032;56.028;92.904;2024-01-07T05:50:07;100208.25;;;-6.96;39.50
42887;BME280;29032;56.028;92.904;2024-01-07T05:55:09;100207.91;;;-6.78;39.57
42887;BME280;29032;56.028;92.904;2024-01-07T06:00:14;100210.38;;;-6.64;39.52
42887;BME280;29032;56.028;92.904;2024-01-07T06:05:16;100214.22;;;-6.62;38.85
42887;BME280;29032;56.028;92.904;2024-01-07T06:10:19;100224.69;;;-6.60;39.36
42887;BME280;29032;56.028;92.904;2024-01-07T06:15:22;100229.38;;;-7.04;39.43
42887;BME280;29032;56.028;92.904;2024-01-07T06:20:24;100232.03;;;-7.24;39.53
42887;BME280;29032;56.028;92.904;2024-01-07T06:25:27;100238.59;;;-6.98;39.54
42887;BME280;29032;56.028;92.904;2024-01-07T06:30:30;100235.69;;;-7.11;38.77
42887;BME280;29032;56.028;92.904;2024-01-07T06:35:33;100240.22;;;-7.27;38.90
42887;BME280;29032;56.028;92.904;2024-01-07T06:40:35;100251.63;;;-7.59;39.74
42887;BME280;29032;56.028;92.904;2024-01-07T06:45:38;100257.56;;;-7.68;39.84
42887;BME280;29032;56.028;92.904;2024-01-07T06:50:41;100257.50;;;-7.91;39.51
42887;BME280;29032;56.028;92.904;2024-01-07T06:55:43;100251.63;;;-8.17;39.87
42887;BME280;29032;56.028;92.904;2024-01-07T07:00:47;100266.88;;;-7.96;40.48
42887;BME280;29032;56.028;92.904;2024-01-07T07:05:49;100281.53;;;-7.63;40.12
42887;BME280;29032;56.028;92.904;2024-01-07T07:10:51;100276.88;;;-7.35;39.31
42887;BME280;29032;56.028;92.904;2024-01-07T07:15:55;100292.16;;;-7.45;39.06
42887;BME280;29032;56.028;92.904;2024-01-07T07:20:57;100298.69;;;-7.66;39.34
42887;BME280;29032;56.028;92.904;2024-01-07T07:25:59;100299.66;;;-7.83;40.07
42887;BME280;29032;56.028;92.904;2024-01-07T07:31:03;100297.06;;;-7.63;39.99
42887;BME280;29032;56.028;92.904;2024-01-07T07:36:05;100303.19;;;-7.56;39.32
42887;BME280;29032;56.028;92.904;2024-01-07T07:41:07;100302.31;;;-7.49;39.35
42887;BME280;29032;56.028;92.904;2024-01-07T07:46:11;100313.28;;;-7.29;39.56
42887;BME280;29032;56.028;92.904;2024-01-07T07:51:14;100315.13;;;-7.23;39.42
42887;BME280;29032;56.028;92.904;2024-01-07T07:56:16;100314.78;;;-7.25;39.00
42887;BME280;29032;56.028;92.904;2024-01-07T08:01:19;100319.91;;;-7.57;38.74
42887;BME280;29032;56.028;92.904;2024-01-07T08:06:22;100322.84;;;-8.06;39.57
42887;BME280;29032;56.028;92.904;2024-01-07T08:11:24;100333.94;;;-8.27;40.20
42887;BME280;29032;56.028;92.904;2024-01-07T08:16:28;100339.63;;;-8.14;40.12
42887;BME280;29032;56.028;92.904;2024-01-07T08:21:30;100340.22;;;-8.00;40.10
42887;BME280;29032;56.028;92.904;2024-01-07T08:26:32;100349.81;;;-7.91;39.51
42887;BME280;29032;56.028;92.904;2024-01-07T08:31:36;100355.41;;;-8.02;39.64
42887;BME280;29032;56.028;92.904;2024-01-07T08:36:38;100358.97;;;-8.09;39.68
42887;BME280;29032;56.028;92.904;2024-01-07T08:41:40;100376.03;;;-8.12;39.85
42887;BME280;29032;56.028;92.904;2024-01-07T08:46:44;100373.03;;;-8.17;39.94
42887;BME280;29032;56.028;92.904;2024-01-07T08:51:46;100384.84;;;-8.38;40.63
42887;BME280;29032;56.028;92.904;2024-01-07T08:56:48;100385.59;;;-8.34;40.03
42887;BME280;29032;56.028;92.904;2024-01-07T09:01:52;100394.13;;;-8.36;40.00
42887;BME280;29032;56.028;92.904;2024-01-07T09:06:54;100392.69;;;-8.48;40.27
42887;BME280;29032;56.028;92.904;2024-01-07T09:11:56;100410.25;;;-8.63;40.41
42887;BME280;29032;56.028;92.904;2024-01-07T09:17:00;100413.31;;;-8.54;40.51
42887;BME280;29032;56.028;92.904;2024-01-07T09:22:02;100415.47;;;-8.38;40.39
42887;BME280;29032;56.028;92.904;2024-01-07T09:27:05;100415.00;;;-8.29;39.98
42887;BME280;29032;56.028;92.904;2024-01-07T09:32:08;100419.94;;;-8.17;39.86
42887;BME280;29032;56.028;92.904;2024-01-07T09:37:11;100422.66;;;-8.17;39.40
42887;BME280;29032;56.028;92.904;2024-01-07T09:42:13;100431.16;;;-8.15;41.04
42887;BME280;29032;56.028;92.904;2024-01-07T09:47:17;100432.34;;;-8.16;39.11
42887;BME280;29032;56.028;92.904;2024-01-07T09:52:20;100438.88;;;-8.10;39.19
42887;BME280;29032;56.028;92.904;2024-01-07T09:57:22;100446.94;;;-8.03;39.42
42887;BME280;29032;56.028;92.904;2024-01-07T10:02:26;100446.53;;;-8.01;39.22
42887;BME280;29032;56.028;92.904;2024-01-07T10:07:28;100456.63;;;-8.02;39.04
42887;BME280;29032;56.028;92.904;2024-01-07T10:12:31;100460.59;;;-8.10;38.63
42887;BME280;29032;56.028;92.904;2024-01-07T10:17:34;100465.63;;;-8.12;39.22
42887;BME280;29032;56.028;92.904;2024-01-07T10:22:36;100476.94;;;-8.17;39.32
42887;BME280;29032;56.028;92.904;2024-01-07T10:27:39;100483.91;;;-8.16;39.11
42887;BME280;29032;56.028;92.904;2024-01-07T10:32:43;100501.38;;;-8.17;39.31
42887;BME280;29032;56.028;92.904;2024-01-07T10:37:45;100499.09;;;-8.22;39.20
42887;BME280;29032;56.028;92.904;2024-01-07T10:42:48;100503.72;;;-8.19;39.46
42887;BME280;29032;56.028;92.904;2024-01-07T10:47:55;100497.50;;;-8.16;39.30
42887;BME280;29032;56.028;92.904;2024-01-07T10:53:04;100507.34;;;-8.36;39.82
42887;BME280;29032;56.028;92.904;2024-01-07T10:58:06;100519.53;;;-8.59;39.90
42887;BME280;29032;56.028;92.904;2024-01-07T11:03:13;100520.03;;;-8.78;40.15
42887;BME280;29032;56.028;92.904;2024-01-07T11:08:23;100521.19;;;-8.83;40.28
42887;BME280;29032;56.028;92.904;2024-01-07T11:13:34;100527.72;;;-8.66;40.30
42887;BME280;29032;56.028;92.904;2024-01-07T11:18:40;100521.88;;;-8.61;40.21
42887;BME280;29032;56.028;92.904;2024-01-07T11:23:47;100537.66;;;-8.49;39.40
42887;BME280;29032;56.028;92.904;2024-01-07T11:28:50;100545.66;;;-8.27;39.35
42887;BME280;29032;56.028;92.904;2024-01-07T11:33:54;100547.13;;;-8.15;39.55
42887;BME280;29032;56.028;92.904;2024-01-07T11:38:56;100550.97;;;-8.13;38.82
42887;BME280;29032;56.028;92.904;2024-01-07T11:43:59;100552.41;;;-8.50;39.15
42887;BME280;29032;56.028;92.904;2024-01-07T11:49:03;100558.06;;;-8.92;39.93
42887;BME280;29032;56.028;92.904;2024-01-07T11:54:06;100563.19;;;-9.09;40.55
42887;BME280;29032;56.028;92.904;2024-01-07T11:59:08;100571.34;;;-9.16;40.50
42887;BME280;29032;56.028;92.904;2024-01-07T12:04:12;100574.38;;;-8.99;40.24
42887;BME280;29032;56.028;92.904;2024-01-07T12:09:14;100576.69;;;-8.94;40.05
42887;BME280;29032;56.028;92.904;2024-01-07T12:14:16;100571.22;;;-8.87;39.75
42887;BME280;29032;56.028;92.904;2024-01-07T12:19:20;100579.34;;;-8.91;39.57
42887;BME280;29032;56.028;92.904;2024-01-07T12:24:25;100592.94;;;-8.98;39.88
42887;BME280;29032;56.028;92.904;2024-01-07T12:29:27;100584.47;;;-9.18;40.17
42887;BME280;29032;56.028;92.904;2024-01-07T12:34:30;100594.59;;;-9.33;40.38
42887;BME280;29032;56.028;92.904;2024-01-07T12:39:33;100596.94;;;-9.52;40.65
42887;BME280;29032;56.028;92.904;2024-01-07T12:44:36;100585.34;;;-9.56;40.46
42887;BME280;29032;56.028;92.904;2024-01-07T12:49:40;100600.06;;;-9.68;41.62
42887;BME280;29032;56.028;92.904;2024-01-07T12:54:42;100599.31;;;-9.76;41.15
42887;BME280;29032;56.028;92.904;2024-01-07T12:59:44;100594.69;;;-9.86;41.22
42887;BME280;29032;56.028;92.904;2024-01-07T13:04:48;100600.09;;;-9.86;41.52
42887;BME280;29032;56.028;92.904;2024-01-07T13:09:50;100591.56;;;-9.88;41.79
42887;BME280;29032;56.028;92.904;2024-01-07T13:14:52;100599.31;;;-9.79;41.63
42887;BME280;29032;56.028;92.904;2024-01-07T13:19:56;100596.19;;;-9.56;41.47
42887;BME280;29032;56.028;92.904;2024-01-07T13:24:58;100600.44;;;-9.55;41.03
42887;BME280;29032;56.028;92.904;2024-01-07T13:30:00;100601.63;;;-9.64;41.82
42887;BME280;29032;56.028;92.904;2024-01-07T13:35:05;100606.25;;;-9.68;41.52
42887;BME280;29032;56.028;92.904;2024-01-07T13:40:08;100603.94;;;-9.69;41.38
42887;BME280;29032;56.028;92.904;2024-01-07T13:45:11;100607.03;;;-9.64;40.86
42887;BME280;29032;56.028;92.904;2024-01-07T13:50:15;100599.66;;;-9.67;41.11
42887;BME280;29032;56.028;92.904;2024-01-07T13:55:17;100603.56;;;-9.75;41.12
42887;BME280;29032;56.028;92.904;2024-01-07T14:00:19;100602.78;;;-9.72;41.68
42887;BME280;29032;56.028;92.904;2024-01-07T14:05:23;100610.91;;;-9.65;41.12
42887;BME280;29032;56.028;92.904;2024-01-07T14:10:25;100607.81;;;-9.74;41.42
42887;BME280;29032;56.028;92.904;2024-01-07T14:15:27;100598.13;;;-9.75;41.47
42887;BME280;29032;56.028;92.904;2024-01-07T14:20:31;100596.19;;;-9.67;41.70
42887;BME280;29032;56.028;92.904;2024-01-07T14:25:33;100601.63;;;-9.64;41.08
42887;BME280;29032;56.028;92.904;2024-01-07T14:30:35;100590.41;;;-9.66;41.20
42887;BME280;29032;56.028;92.904;2024-01-07T14:35:39;100584.97;;;-9.58;41.13
42887;BME280;29032;56.028;92.904;2024-01-07T14:40:41;100590.78;;;-9.56;41.00
42887;BME280;29032;56.028;92.904;2024-01-07T14:45:44;100589.22;;;-9.54;41.10
42887;BME280;29032;56.028;92.904;2024-01-07T14:50:51;100591.53;;;-9.49;41.12
42887;BME280;29032;56.028;92.904;2024-01-07T14:55:53;100581.84;;;-9.53;41.34
42887;BME280;29032;56.028;92.904;2024-01-07T15:00:55;100593.47;;;-9.49;41.41
42887;BME280;29032;56.028;92.904;2024-01-07T15:05:59;100592.34;;;-9.59;41.52
42887;BME280;29032;56.028;92.904;2024-01-07T15:11:02;100589.63;;;-9.66;41.70
42887;BME280;29032;56.028;92.904;2024-01-07T15:16:05;100579.16;;;-9.68;41.28
42887;BME280;29032;56.028;92.904;2024-01-07T15:21:09;100586.94;;;-9.77;41.92
42887;BME280;29032;56.028;92.904;2024-01-07T15:26:11;100586.94;;;-9.98;42.00
42887;BME280;29032;56.028;92.904;2024-01-07T15:31:13;100573.00;;;-10.04;42.03
42887;BME280;29032;56.028;92.904;2024-01-07T15:36:17;100580.34;;;-10.04;42.66
42887;BME280;29032;56.028;92.904;2024-01-07T15:41:19;100573.78;;;-9.96;41.65
42887;BME280;29032;56.028;92.904;2024-01-07T15:46:22;100571.06;;;-9.96;41.28
42887;BME280;29032;56.028;92.904;2024-01-07T15:51:25;100569.91;;;-10.09;41.12
42887;BME280;29032;56.028;92.904;2024-01-07T15:56:27;100580.72;;;-10.17;41.28
42887;BME280;29032;56.028;92.904;2024-01-07T16:01:30;100575.28;;;-10.31;41.08
42887;BME280;29032;56.028;92.904;2024-01-07T16:06:34;100578.41;;;-10.36;41.54
42887;BME280;29032;56.028;92.904;2024-01-07T16:11:36;100565.25;;;-10.41;41.18
42887;BME280;29032;56.028;92.904;2024-01-07T16:16:38;100553.66;;;-10.49;41.69
42887;BME280;29032;56.028;92.904;2024-01-07T16:21:42;100564.03;;;-10.61;41.43
42887;BME280;29032;56.028;92.904;2024-01-07T16:26:44;100564.38;;;-10.81;42.17
42887;BME280;29032;56.028;92.904;2024-01-07T16:31:49;100555.84;;;-10.97;42.71
42887;BME280;29032;56.028;92.904;2024-01-07T16:36:53;100548.88;;;-10.98;43.16
42887;BME280;29032;56.028;92.904;2024-01-07T16:42:00;100549.69;;;-10.80;41.93
42887;BME280;29032;56.028;92.904;2024-01-07T16:47:02;100537.00;;;-10.72;40.91
42887;BME280;29032;56.028;92.904;2024-01-07T16:52:06;100534.25;;;-10.79;40.91
42887;BME280;29032;56.028;92.904;2024-01-07T16:57:08;100536.50;;;-11.06;41.68
42887;BME280;29032;56.028;92.904;2024-01-07T17:02:14;100536.06;;;-11.15;42.63
42887;BME280;29032;56.028;92.904;2024-01-07T17:07:19;100543.44;;;-11.05;41.89
42887;BME280;29032;56.028;92.904;2024-01-07T17:12:24;100539.59;;;-11.04;42.63
42887;BME280;29032;56.028;92.904;2024-01-07T17:17:26;100531.06;;;-11.10;42.15
42887;BME280;29032;56.028;92.904;2024-01-07T17:22:30;100537.63;;;-11.14;42.24
42887;BME280;29032;56.028;92.904;2024-01-07T17:27:33;100544.13;;;-11.26;42.30
42887;BME280;29032;56.028;92.904;2024-01-07T17:32:35;100544.88;;;-11.33;41.87
42887;BME280;29032;56.028;92.904;2024-01-07T17:37:41;100546.41;;;-11.32;42.18
42887;BME280;29032;56.028;92.904;2024-01-07T17:42:43;100543.72;;;-11.35;43.56
42887;BME280;29032;56.028;92.904;2024-01-07T17:47:45;100545.75;;;-11.14;43.26
42887;BME280;29032;56.028;92.904;2024-01-07T17:52:50;100538.84;;;-10.94;42.94
42887;BME280;29032;56.028;92.904;2024-01-07T17:57:52;100541.97;;;-10.85;41.50
42887;BME280;29032;56.028;92.904;2024-01-07T18:02:54;100531.94;;;-10.84;40.63
42887;BME280;29032;56.028;92.904;2024-01-07T18:07:58;100533.84;;;-10.92;41.33
42887;BME280;29032;56.028;92.904;2024-01-07T18:13:03;100533.03;;;-11.03;41.94
42887;BME280;29032;56.028;92.904;2024-01-07T18:18:05;100524.53;;;-11.02;42.19
42887;BME280;29032;56.028;92.904;2024-01-07T18:23:08;100515.69;;;-10.91;41.92
42887;BME280;29032;56.028;92.904;2024-01-07T18:28:11;100524.22;;;-10.86;41.70
42887;BME280;29032;56.028;92.904;2024-01-07T18:33:13;100511.84;;;-10.90;40.49
42887;BME280;29032;56.028;92.904;2024-01-07T18:38:17;100510.63;;;-11.07;41.94
42887;BME280;29032;56.028;92.904;2024-01-07T18:43:19;100503.63;;;-11.22;40.87
42887;BME280;29032;56.028;92.904;2024-01-07T18:48:21;100507.00;;;-11.47;41.35
42887;BME280;29032;56.028;92.904;2024-01-07T18:53:25;100510.09;;;-11.45;42.11
42887;BME280;29032;56.028;92.904;2024-01-07T18:58:27;100510.13;;;-11.38;41.85
42887;BME280;29032;56.028;92.904;2024-01-07T19:03:29;100499.72;;;-11.29;40.91
42887;BME280;29032;56.028;92.904;2024-01-07T19:08:32;100510.97;;;-11.19;41.16
42887;BME280;29032;56.028;92.904;2024-01-07T19:13:35;100493.19;;;-11.24;41.11
42887;BME280;29032;56.028;92.904;2024-01-07T19:18:37;100492.81;;;-11.22;41.10
42887;BME280;29032;56.028;92.904;2024-01-07T19:23:40;100482.03;;;-11.19;40.56
42887;BME280;29032;56.028;92.904;2024-01-07T19:28:43;100473.91;;;-11.19;40.98
42887;BME280;29032;56.028;92.904;2024-01-07T19:33:45;100455.00;;;-11.15;41.00
42887;BME280;29032;56.028;92.904;2024-01-07T19:38:48;100453.88;;;-11.14;40.91
42887;BME280;29032;56.028;92.904;2024-01-07T19:43:51;100452.28;;;-11.22;41.20
42887;BME280;29032;56.028;92.904;2024-01-07T19:48:54;100447.63;;;-11.29;40.67
42887;BME280;29032;56.028;92.904;2024-01-07T19:53:58;100458.81;;;-11.34;40.66
42887;BME280;29032;56.028;92.904;2024-01-07T19:59:00;100455.31;;;-11.49;40.87
42887;BME280;29032;56.028;92.904;2024-01-07T20:04:02;100449.09;;;-11.57;39.89
42887;BME280;29032;56.028;92.904;2024-01-07T20:09:06;100443.91;;;-11.94;40.54
42887;BME280;29032;56.028;92.904;2024-01-07T20:14:08;100446.38;;;-12.33;40.68
42887;BME280;29032;56.028;92.904;2024-01-07T20:19:10;100442.31;;;-12.57;40.65
42887;BME280;29032;56.028;92.904;2024-01-07T20:24:14;100440.38;;;-12.60;42.27
42887;BME280;29032;56.028;92.904;2024-01-07T20:29:16;100440.91;;;-12.44;41.17
42887;BME280;29032;56.028;92.904;2024-01-07T20:34:18;100432.56;;;-12.24;41.43
42887;BME280;29032;56.028;92.904;2024-01-07T20:39:22;100423.75;;;-12.14;41.44
42887;BME280;29032;56.028;92.904;2024-01-07T20:44:24;100413.38;;;-12.12;40.94
42887;BME280;29032;56.028;92.904;2024-01-07T20:49:26;100402.97;;;-12.10;40.96
42887;BME280;29032;56.028;92.904;2024-01-07T20:54:30;100396.81;;;-12.07;41.13
42887;BME280;29032;56.028;92.904;2024-01-07T20:59:32;100388.72;;;-12.07;41.30
42887;BME280;29032;56.028;92.904;2024-01-07T21:04:34;100375.66;;;-12.05;41.48
42887;BME280;29032;56.028;92.904;2024-01-07T21:09:38;100368.72;;;-12.06;42.03
42887;BME280;29032;56.028;92.904;2024-01-07T21:14:40;100354.03;;;-12.09;41.83
42887;BME280;29032;56.028;92.904;2024-01-07T21:19:42;100354.47;;;-12.03;40.96
42887;BME280;29032;56.028;92.904;2024-01-07T21:24:46;100343.31;;;-11.98;40.75
42887;BME280;29032;56.028;92.904;2024-01-07T21:29:48;100332.47;;;-12.09;40.86
42887;BME280;29032;56.028;92.904;2024-01-07T21:34:50;100330.91;;;-12.10;40.05
42887;BME280;29032;56.028;92.904;2024-01-07T21:39:54;100333.16;;;-12.26;40.15
42887;BME280;29032;56.028;92.904;2024-01-07T21:44:56;100308.72;;;-12.58;40.10
42887;BME280;29032;56.028;92.904;2024-01-07T21:49:58;100302.75;;;-12.88;41.70
42887;BME280;29032;56.028;92.904;2024-01-07T21:55:02;100301.63;;;-12.80;42.26
42887;BME280;29032;56.028;92.904;2024-01-07T22:00:06;100293.66;;;-12.66;41.23
42887;BME280;29032;56.028;92.904;2024-01-07T22:05:12;100288.34;;;-12.52;41.45
42887;BME280;29032;56.028;92.904;2024-01-07T22:10:15;100289.91;;;-12.44;40.78
42887;BME280;29032;56.028;92.904;2024-01-07T22:15:18;100292.22;;;-12.46;40.51
42887;BME280;29032;56.028;92.904;2024-01-07T22:20:20;100285.28;;;-12.47;40.39
42887;BME280;29032;56.028;92.904;2024-01-07T22:25:23;100273.75;;;-12.47;40.47
42887;BME280;29032;56.028;92.904;2024-01-07T22:30:26;100264.47;;;-12.50;40.97
42887;BME280;29032;56.028;92.904;2024-01-07T22:35:28;100268.31;;;-12.51;40.56
42887;BME280;29032;56.028;92.904;2024-01-07T22:40:32;100243.66;;;-12.53;40.64
42887;BME280;29032;56.028;92.904;2024-01-07T22:45:34;100230.53;;;-12.58;40.63
42887;BME280;29032;56.028;92.904;2024-01-07T22:50:36;100236.66;;;-12.65;40.99
42887;BME280;29032;56.028;92.904;2024-01-07T22:55:40;100222.81;;;-12.63;40.34
42887;BME280;29032;56.028;92.904;2024-01-07T23:00:42;100226.66;;;-12.64;41.12
42887;BME280;29032;56.028;92.904;2024-01-07T23:05:44;100218.19;;;-12.66;40.19
42887;BME280;29032;56.028;92.904;2024-01-07T23:10:48;100222.34;;;-12.79;41.25
42887;BME280;29032;56.028;92.904;2024-01-07T23:15:50;100208.88;;;-12.83;41.27
42887;BME280;29032;56.028;92.904;2024-01-07T23:20:52;100218.06;;;-12.87;41.94
42887;BME280;29032;56.028;92.904;2024-01-07T23:25:56;100198.44;;;-12.84;41.83
42887;BME280;29032;56.028;92.904;2024-01-07T23:31:00;100188.09;;;-12.82;41.16
42887;BME280;29032;56.028;92.904;2024-01-07T23:36:03;100178.47;;;-12.83;41.40
42887;BME280;29032;56.028;92.904;2024-01-07T23:41:07;100176.53;;;-12.79;40.63
42887;BME280;29032;56.028;92.904;2024-01-07T23:46:09;100161.09;;;-12.93;40.88
42887;BME280;29032;56.028;92.904;2024-01-07T23:51:11;100159.34;;;-13.26;40.82
42887;BME280;29032;56.028;92.904;2024-01-07T23:56:15;100155.06;;;-13.38;41.41
